createdAt,value
2023-03-05T00:05:08.434Z,1017.3
2023-03-05T00:11:14.240Z,1017.2
2023-03-05T00:17:20.389Z,1017.2
2023-03-05T00:23:26.509Z,1017.1
2023-03-05T00:29:33.510Z,1017.1
2023-03-05T00:35:39.198Z,1017.1
2023-03-05T00:41:45.270Z,1017
2023-03-05T00:47:51.104Z,1017
2023-03-05T00:53:57.503Z,1016.9
2023-03-05T01:00:03.110Z,1016.8
2023-03-05T01:06:08.976Z,1016.8
2023-03-05T01:12:15.144Z,1016.7
2023-03-05T01:18:21.007Z,1016.6
2023-03-05T01:24:27.325Z,1016.6
2023-03-05T01:30:33.920Z,1016.5
2023-03-05T01:36:39.958Z,1016.5
2023-03-05T01:42:45.884Z,1016.5
2023-03-05T01:48:52.295Z,1016.4
2023-03-05T01:54:58.062Z,1016.3
2023-03-05T02:01:04.093Z,1016.2
2023-03-05T02:07:10.229Z,1016.3
2023-03-05T02:13:15.995Z,1016.2
2023-03-05T02:19:21.986Z,1016.2
2023-03-05T02:25:28.573Z,1016.1
2023-03-05T02:31:35.051Z,1016.1
2023-03-05T02:37:40.768Z,1016.1
2023-03-05T02:43:46.617Z,1016
2023-03-05T02:49:52.526Z,1016
2023-03-05T02:55:58.901Z,1015.9
2023-03-05T03:02:04.961Z,1015.8
2023-03-05T03:08:10.849Z,1015.7
2023-03-05T03:14:16.919Z,1015.6
2023-03-05T03:20:22.885Z,1015.6
2023-03-05T03:26:28.645Z,1015.5
2023-03-05T03:32:34.714Z,1015.5
2023-03-05T03:38:41.180Z,1015.5
2023-03-05T03:44:47.189Z,1015.4
2023-03-05T03:50:53.338Z,1015.4
2023-03-05T03:56:59.729Z,1015.4
2023-03-05T04:03:05.509Z,1015.3
2023-03-05T04:09:11.097Z,1015.2
2023-03-05T04:15:17.058Z,1015.2
2023-03-05T04:21:22.528Z,1015.1
2023-03-05T04:27:28.287Z,1015
2023-03-05T04:33:34.170Z,1014.9
2023-03-05T04:39:40.074Z,1015
2023-03-05T04:45:46.041Z,1014.9
2023-03-05T04:51:51.838Z,1014.9
2023-03-05T04:57:57.561Z,1014.8
2023-03-05T05:04:03.694Z,1014.8
2023-03-05T05:10:09.561Z,1014.8
2023-03-05T05:16:15.603Z,1014.8
2023-03-05T05:22:21.201Z,1014.7
2023-03-05T05:28:26.976Z,1014.7
2023-03-05T05:34:32.975Z,1014.6
2023-03-05T05:40:39.370Z,1014.8
2023-03-05T05:46:45.613Z,1014.8
2023-03-05T05:52:51.731Z,1014.8
2023-03-05T05:58:57.372Z,1014.8
2023-03-05T06:05:03.567Z,1014.8
2023-03-05T06:11:09.700Z,1014.8
2023-03-05T06:17:30.223Z,1014.8
2023-03-05T06:23:36.803Z,1014.8
2023-03-05T06:29:42.650Z,1014.8
2023-03-05T06:35:48.803Z,1014.7
2023-03-05T06:41:55.012Z,1014.7
2023-03-05T06:48:01.130Z,1014.7
2023-03-05T06:54:07.046Z,1014.8
2023-03-05T07:00:12.486Z,1014.6
2023-03-05T07:06:18.075Z,1014.6
2023-03-05T07:12:24.461Z,1014.7
2023-03-05T07:18:31.066Z,1014.6
2023-03-05T07:24:37.061Z,1014.7
2023-03-05T07:30:43.497Z,1014.6
2023-03-05T07:36:49.488Z,1014.7
2023-03-05T07:42:55.190Z,1014.6
2023-03-05T07:49:01.172Z,1014.6
2023-03-05T07:55:07.764Z,1014.6
2023-03-05T08:01:15.187Z,1014.6
2023-03-05T08:07:21.378Z,1014.4
2023-03-05T08:13:27.343Z,1014.4
2023-03-05T08:19:33.449Z,1014.4
2023-03-05T08:25:39.095Z,1014.4
2023-03-05T08:31:45.520Z,1014.3
2023-03-05T08:37:51.479Z,1014.3
2023-03-05T08:43:57.672Z,1014.3
2023-03-05T08:50:03.846Z,1014.2
2023-03-05T08:56:10.055Z,1014.2
2023-03-05T09:02:16.023Z,1014.2
2023-03-05T09:08:22.417Z,1014.1
2023-03-05T09:14:28.623Z,1014.1
2023-03-05T09:20:34.390Z,1014
2023-03-05T09:26:40.211Z,1014
2023-03-05T09:32:46.349Z,1013.9
2023-03-05T09:38:52.572Z,1013.9
2023-03-05T09:44:58.321Z,1013.9
2023-03-05T09:51:03.856Z,1014
2023-03-05T09:57:09.853Z,1013.9
2023-03-05T10:03:16.784Z,1013.9
2023-03-05T10:09:23.026Z,1013.9
2023-03-05T10:15:31.072Z,1013.8
2023-03-05T10:21:40.309Z,1013.7
2023-03-05T10:27:46.134Z,1013.6
2023-03-05T10:33:52.489Z,1013.5
2023-03-05T10:39:58.669Z,1013.6
2023-03-05T10:46:04.997Z,1013.5
2023-03-05T10:52:11.263Z,1013.5
2023-03-05T10:58:16.880Z,1013.3
2023-03-05T11:04:22.723Z,1013.2
2023-03-05T11:10:28.656Z,1013.2
2023-03-05T11:16:34.613Z,1013.1
2023-03-05T11:22:41.169Z,1013
2023-03-05T11:28:47.345Z,1013
2023-03-05T11:34:53.730Z,1012.9
2023-03-05T11:40:59.721Z,1012.9
2023-03-05T11:47:05.309Z,1012.8
2023-03-05T11:53:11.696Z,1012.7
2023-03-05T11:59:17.931Z,1012.6
2023-03-05T12:05:24.334Z,1012.5
2023-03-05T12:11:30.461Z,1012.5
2023-03-05T12:17:37.088Z,1012.5
2023-03-05T12:23:43.254Z,1012.3
2023-03-05T12:29:49.238Z,1012.2
2023-03-05T12:35:55.288Z,1012.1
2023-03-05T12:42:01.656Z,1012.1
2023-03-05T12:48:07.784Z,1012
2023-03-05T12:54:13.139Z,1011.9
2023-03-05T13:00:19.549Z,1011.9
2023-03-05T13:06:26.358Z,1011.8
2023-03-05T13:12:32.521Z,1011.7
2023-03-05T13:18:40.610Z,1011.6
2023-03-05T13:24:46.534Z,1011.7
2023-03-05T13:30:52.925Z,1011.7
2023-03-05T13:36:58.500Z,1011.6
2023-03-05T13:43:05.094Z,1011.6
2023-03-05T13:49:10.731Z,1011.5
2023-03-05T13:55:17.876Z,1011.5
2023-03-05T14:01:24.309Z,1011.4
2023-03-05T14:07:30.841Z,1011.4
2023-03-05T14:13:36.685Z,1011.4
2023-03-05T14:19:42.616Z,1011.3
2023-03-05T14:25:48.578Z,1011.2
2023-03-05T14:31:54.595Z,1011.1
2023-03-05T14:38:00.973Z,1011
2023-03-05T14:44:06.529Z,1011
2023-03-05T14:50:12.187Z,1010.9
2023-03-05T14:56:18.114Z,1010.9
2023-03-05T15:02:24.560Z,1010.8
2023-03-05T15:08:31.170Z,1010.8
2023-03-05T15:14:37.057Z,1010.9
2023-03-05T15:20:43.088Z,1010.8
2023-03-05T15:26:51.694Z,1010.7
2023-03-05T15:32:57.446Z,1010.8
2023-03-05T15:39:03.854Z,1010.6
2023-03-05T15:45:09.636Z,1010.6
2023-03-05T15:51:15.416Z,1010.5
2023-03-05T15:57:21.674Z,1010.5
2023-03-05T16:03:27.612Z,1010.4
2023-03-05T16:09:34.567Z,1010.4
2023-03-05T16:15:40.798Z,1010.4
2023-03-05T16:21:46.563Z,1010.4
2023-03-05T16:27:52.553Z,1010.3
2023-03-05T16:33:58.701Z,1010.3
2023-03-05T16:40:04.701Z,1010.3
2023-03-05T16:46:10.142Z,1010.2
2023-03-05T16:52:21.199Z,1010.3
2023-03-05T16:58:27.026Z,1010.3
2023-03-05T17:04:32.296Z,1010.3
2023-03-05T17:10:38.770Z,1010.2
2023-03-05T17:16:44.698Z,1010.2
2023-03-05T17:22:51.090Z,1010.1
2023-03-05T17:28:57.256Z,1010.1
2023-03-05T17:35:05.915Z,1010.1
2023-03-05T17:41:11.702Z,1010.1
2023-03-05T17:47:17.855Z,1010.1
2023-03-05T17:53:24.063Z,1010.1
2023-03-05T17:59:30.447Z,1010
2023-03-05T18:05:36.421Z,1010
2023-03-05T18:11:41.816Z,1010
2023-03-05T18:17:48.004Z,1010
2023-03-05T18:23:53.736Z,1010
2023-03-05T18:29:59.638Z,1009.9
2023-03-05T18:36:05.714Z,1009.9
2023-03-05T18:42:11.715Z,1009.9
2023-03-05T18:48:17.482Z,1009.8
2023-03-05T18:54:23.532Z,1009.8
2023-03-05T19:00:29.417Z,1009.8
2023-03-05T19:06:35.228Z,1009.7
2023-03-05T19:12:41.609Z,1009.6
2023-03-05T19:18:47.576Z,1009.6
2023-03-05T19:24:53.376Z,1009.6
2023-03-05T19:30:59.568Z,1009.6
2023-03-05T19:37:05.807Z,1009.5
2023-03-05T19:43:11.316Z,1009.5
2023-03-05T19:49:17.505Z,1009.5
2023-03-05T19:55:23.263Z,1009.5
2023-03-05T20:01:29.260Z,1009.4
2023-03-05T20:07:34.520Z,1009.4
2023-03-05T20:13:40.407Z,1009.4
2023-03-05T20:19:46.393Z,1009.3
2023-03-05T20:25:51.846Z,1009.3
2023-03-05T20:31:57.745Z,1009.2
2023-03-05T20:38:03.568Z,1009.2
2023-03-05T20:44:09.120Z,1009.1
2023-03-05T20:50:14.646Z,1009.1
2023-03-05T20:56:20.424Z,1009.1
2023-03-05T21:02:26.520Z,1009.1
2023-03-05T21:08:32.381Z,1009
2023-03-05T21:14:38.169Z,1009
2023-03-05T21:20:44.140Z,1009
2023-03-05T21:26:49.532Z,1008.9
2023-03-05T21:32:55.570Z,1008.8
2023-03-05T21:39:01.682Z,1008.7
2023-03-05T21:45:07.498Z,1008.6
2023-03-05T21:51:13.232Z,1008.6
2023-03-05T21:57:18.802Z,1008.5
2023-03-05T22:03:25.002Z,1008.4
2023-03-05T22:09:30.777Z,1008.3
2023-03-05T22:15:36.552Z,1008.3
2023-03-05T22:21:41.928Z,1008.3
2023-03-05T22:27:47.898Z,1008.3
2023-03-05T22:33:53.657Z,1008.3
2023-03-05T22:39:59.446Z,1008.2
2023-03-05T22:46:05.031Z,1008.1
2023-03-05T22:52:11.003Z,1008.2
2023-03-05T22:58:17.196Z,1008.1
2023-03-05T23:04:23.019Z,1008.1
2023-03-05T23:10:28.929Z,1008
2023-03-05T23:16:35.147Z,1008
2023-03-05T23:22:41.209Z,1007.9
2023-03-05T23:28:47.103Z,1007.7
2023-03-05T23:34:53.098Z,1007.9
2023-03-05T23:41:02.178Z,1007.9
2023-03-05T23:47:07.595Z,1007.9
2023-03-05T23:53:13.681Z,1007.8
2023-03-05T23:59:19.453Z,1007.7
